createdAt,value
2023-01-23T00:00:22.616Z,102273.91
2023-01-23T00:05:19.585Z,102277.25
2023-01-23T00:10:17.870Z,102291.91
2023-01-23T00:15:15.749Z,102304.88
2023-01-23T00:20:13.246Z,102302.28
2023-01-23T00:25:11.272Z,102298.75
2023-01-23T00:30:10.444Z,102289.31
2023-01-23T00:35:07.820Z,102338.81
2023-01-23T00:40:05.764Z,102332.94
2023-01-23T00:45:03.804Z,102324.13
2023-01-23T00:50:01.248Z,102269.81
2023-01-23T00:55:00.130Z,102337.41
2023-01-23T00:59:57.070Z,102264.81
2023-01-23T01:04:53.838Z,102324.53
2023-01-23T01:09:52.875Z,102295.97
2023-01-23T01:14:49.725Z,102334.31
2023-01-23T01:19:46.571Z,102289.19
2023-01-23T01:24:43.395Z,102323.19
2023-01-23T01:29:40.892Z,102311.19
2023-01-23T01:34:37.644Z,102307.56
2023-01-23T01:39:34.429Z,102318.06
2023-01-23T01:44:56.257Z,102335.50
2023-01-23T01:49:55.569Z,102327.69
2023-01-23T01:54:56.195Z,102321.84
2023-01-23T01:59:59.907Z,102288.19
2023-01-23T02:05:01.362Z,102334.00
2023-01-23T02:09:58.316Z,102295.13
2023-01-23T02:14:55.261Z,102330.63
2023-01-23T02:20:00.257Z,102327.38
2023-01-23T02:25:06.310Z,102363.91
2023-01-23T02:30:07.295Z,102333.63
2023-01-23T02:35:10.475Z,102366.59
2023-01-23T02:40:09.115Z,102335.31
2023-01-23T02:45:08.815Z,102366.69
2023-01-23T02:50:06.437Z,102368.47
2023-01-23T02:55:03.631Z,102367.56
2023-01-23T03:00:15.673Z,102387.69
2023-01-23T03:05:13.207Z,102379.72
2023-01-23T03:10:12.608Z,102384.00
2023-01-23T03:15:12.957Z,102374.53
2023-01-23T03:20:11.149Z,102376.28
2023-01-23T03:25:09.655Z,102381.78
2023-01-23T03:30:13.574Z,102333.56
2023-01-23T03:35:13.422Z,102380.56
2023-01-23T03:40:34.336Z,102372.88
2023-01-23T03:45:31.807Z,102391.19
2023-01-23T03:50:28.739Z,102368.69
2023-01-23T03:55:27.959Z,102389.56
2023-01-23T04:00:24.811Z,102387.03
2023-01-23T04:05:33.083Z,102434.03
2023-01-23T04:10:32.195Z,102368.97
2023-01-23T04:15:36.480Z,102413.28
2023-01-23T04:20:36.251Z,102356.13
2023-01-23T04:25:34.001Z,102429.00
2023-01-23T04:30:30.998Z,102448.22
2023-01-23T04:35:34.316Z,102413.44
2023-01-23T04:40:33.209Z,102431.63
2023-01-23T04:45:30.416Z,102474.34
2023-01-23T04:50:42.525Z,102464.78
2023-01-23T04:55:40.155Z,102405.00
2023-01-23T05:00:40.242Z,102451.06
2023-01-23T05:05:37.879Z,102483.28
2023-01-23T05:10:35.151Z,102498.94
2023-01-23T05:15:37.205Z,102493.75
2023-01-23T05:20:35.209Z,102480.72
2023-01-23T05:25:32.956Z,102483.31
2023-01-23T05:30:30.727Z,102476.41
2023-01-23T05:35:44.831Z,102464.25
2023-01-23T05:40:42.622Z,102480.78
2023-01-23T05:46:05.587Z,102526.84
2023-01-23T05:51:12.860Z,102470.41
2023-01-23T05:56:10.883Z,102466.91
2023-01-23T06:01:29.763Z,102402.69
2023-01-23T06:06:59.761Z,102507.75
2023-01-23T06:11:57.319Z,102531.22
2023-01-23T06:16:54.171Z,102533.81
2023-01-23T06:21:51.756Z,102545.16
2023-01-23T06:26:52.067Z,102493.03
2023-01-23T06:31:49.278Z,102588.63
2023-01-23T06:36:47.897Z,102563.41
2023-01-23T06:41:45.331Z,102622.56
2023-01-23T06:46:49.060Z,102543.44
2023-01-23T06:51:47.039Z,102601.69
2023-01-23T06:56:44.254Z,102553.88
2023-01-23T07:01:42.744Z,102619.94
2023-01-23T07:06:50.183Z,102590.34
2023-01-23T07:11:48.835Z,102584.28
2023-01-23T07:16:46.031Z,102628.63
2023-01-23T07:21:42.821Z,102559.06
2023-01-23T07:26:40.264Z,102658.16
2023-01-23T07:31:37.435Z,102604.28
2023-01-23T07:36:42.262Z,102604.25
2023-01-23T07:41:46.391Z,102551.19
2023-01-23T07:46:44.978Z,102665.09
2023-01-23T07:51:41.906Z,102629.44
2023-01-23T07:56:38.702Z,102632.97
2023-01-23T08:01:35.537Z,102638.13
2023-01-23T08:06:33.554Z,102616.38
2023-01-23T08:11:33.440Z,102661.63
2023-01-23T08:16:31.199Z,102644.22
2023-01-23T08:21:28.019Z,102635.50
2023-01-23T08:26:25.587Z,102680.72
2023-01-23T08:31:22.525Z,102653.78
2023-01-23T08:36:19.820Z,102663.34
2023-01-23T08:41:17.142Z,102659.03
2023-01-23T08:46:14.666Z,102619.00
2023-01-23T08:51:13.856Z,102608.53
2023-01-23T08:56:16.660Z,102646.84
2023-01-23T09:01:16.502Z,102603.34
2023-01-23T09:06:14.752Z,102665.97
2023-01-23T09:11:12.877Z,102662.44
2023-01-23T09:16:09.936Z,102632.84
2023-01-23T09:21:09.672Z,102691.19
2023-01-23T09:26:08.714Z,102629.44
2023-01-23T09:31:08.771Z,102619.84
2023-01-23T09:36:11.909Z,102679.03
2023-01-23T09:41:14.199Z,102652.06
2023-01-23T09:46:19.434Z,102684.25
2023-01-23T09:51:24.737Z,102670.38
2023-01-23T09:56:29.822Z,102682.56
2023-01-23T10:01:29.973Z,102678.19
2023-01-23T10:06:29.659Z,102669.50
2023-01-23T10:11:33.603Z,102667.78
2023-01-23T10:16:53.505Z,102646.03
2023-01-23T10:21:59.596Z,102637.31
2023-01-23T10:27:03.582Z,102590.38
2023-01-23T10:32:04.028Z,102666.03
2023-01-23T10:37:13.247Z,102665.16
2023-01-23T10:42:12.409Z,102666.00
2023-01-23T10:47:19.329Z,102621.63
2023-01-23T10:52:33.618Z,102653.84
2023-01-23T10:57:39.056Z,102666.00
2023-01-23T11:02:37.646Z,102606.00
2023-01-23T11:07:39.786Z,102653.84
2023-01-23T11:12:50.141Z,102659.03
2023-01-23T11:17:47.437Z,102655.50
2023-01-23T11:22:44.961Z,102657.25
2023-01-23T11:27:56.849Z,102648.56
2023-01-23T11:32:58.507Z,102658.09
2023-01-23T11:38:00.765Z,102623.31
2023-01-23T11:43:00.289Z,102599.81
2023-01-23T11:48:16.571Z,102598.09
2023-01-23T11:53:30.633Z,102654.66
2023-01-23T11:58:51.643Z,102650.31
2023-01-23T12:04:22.968Z,102663.34
2023-01-23T12:09:22.140Z,102658.09
2023-01-23T12:14:25.914Z,102652.84
2023-01-23T12:19:41.116Z,102678.09
2023-01-23T12:24:53.223Z,102622.34
2023-01-23T12:30:09.167Z,102692.84
2023-01-23T12:35:16.424Z,102691.06
2023-01-23T12:40:21.876Z,102662.31
2023-01-23T12:45:22.844Z,102694.47
2023-01-23T12:50:24.207Z,102692.66
2023-01-23T12:55:24.281Z,102699.66
2023-01-23T13:00:35.826Z,102627.38
2023-01-23T13:05:40.127Z,102686.56
2023-01-23T13:11:13.958Z,102688.34
2023-01-23T13:16:12.880Z,102683.06
2023-01-23T13:21:30.228Z,102669.22
2023-01-23T13:26:30.852Z,102710.00
2023-01-23T13:31:35.665Z,102707.38
2023-01-23T13:36:37.136Z,102697.78
2023-01-23T13:41:36.377Z,102690.84
2023-01-23T14:23:48.548Z,102741.75
2023-01-23T14:28:56.025Z,102726.94
2023-01-23T14:34:09.211Z,102743.31
2023-01-23T14:39:06.813Z,102687.56
2023-01-23T14:44:04.689Z,102731.97
2023-01-23T14:49:02.739Z,102737.09
2023-01-23T14:54:01.015Z,102754.31
2023-01-23T14:59:01.161Z,102745.59
2023-01-23T15:04:02.043Z,102752.44
2023-01-23T15:09:07.995Z,102764.63
2023-01-23T15:14:05.309Z,102748.94
2023-01-23T15:19:06.045Z,102731.47
2023-01-23T15:24:28.728Z,102751.44
2023-01-23T15:29:26.454Z,102740.91
2023-01-23T15:34:27.101Z,102767.84
2023-01-23T15:39:27.467Z,102751.22
2023-01-23T15:44:27.977Z,102677.38
2023-01-23T15:49:26.716Z,102739.13
2023-01-23T15:54:28.186Z,102782.53
2023-01-23T15:59:25.051Z,102748.22
2023-01-23T16:04:21.972Z,102784.16
2023-01-23T16:09:25.941Z,102806.69
2023-01-23T16:14:22.783Z,102760.31
2023-01-23T16:19:19.675Z,102817.88
2023-01-23T16:24:18.953Z,102803.06
2023-01-23T16:29:37.343Z,102762.78
2023-01-23T16:34:34.354Z,102725.09
2023-01-23T16:39:33.322Z,102765.34
2023-01-23T16:44:30.333Z,102779.25
2023-01-23T16:49:28.007Z,102787.00
2023-01-23T16:54:25.919Z,102829.06
2023-01-23T16:59:30.421Z,102794.19
2023-01-23T17:04:28.140Z,102851.69
2023-01-23T17:09:24.963Z,102788.78
2023-01-23T17:14:25.097Z,102815.91
2023-01-23T17:19:29.485Z,102799.38
2023-01-23T17:24:26.283Z,102774.88
2023-01-23T17:29:24.104Z,102851.63
2023-01-23T17:34:24.126Z,102856.81
2023-01-23T17:39:21.706Z,102776.50
2023-01-23T17:44:18.717Z,102819.53
2023-01-23T17:49:27.873Z,102849.03
2023-01-23T17:54:26.075Z,102848.06
2023-01-23T17:59:22.820Z,102838.59
2023-01-23T18:04:21.638Z,102856.81
2023-01-23T18:09:18.695Z,102836.97
2023-01-23T18:14:35.643Z,102854.97
2023-01-23T18:19:33.164Z,102811.34
2023-01-23T18:24:32.464Z,102859.22
2023-01-23T18:29:43.911Z,102868.91
2023-01-23T18:34:47.736Z,102862.72
2023-01-23T18:40:05.188Z,102838.28
2023-01-23T18:45:11.295Z,102846.31
2023-01-23T18:50:08.803Z,102889.03
2023-01-23T18:55:14.975Z,102850.47
2023-01-23T19:00:21.039Z,102917.63
2023-01-23T19:05:27.876Z,102903.66
2023-01-23T19:10:29.165Z,102911.59
2023-01-23T19:15:33.490Z,102911.56
2023-01-23T19:20:42.449Z,102927.16
2023-01-23T19:25:39.717Z,102889.69
2023-01-23T19:30:39.784Z,102921.69
2023-01-23T19:35:40.309Z,102919.88
2023-01-23T19:40:42.450Z,102922.53
2023-01-23T19:45:40.470Z,102915.53
2023-01-23T19:50:37.629Z,102890.84
2023-01-23T19:55:38.428Z,102902.16
2023-01-23T20:00:36.755Z,102940.53
2023-01-23T20:05:34.479Z,102870.59
2023-01-23T20:10:31.958Z,102960.19
2023-01-23T20:15:29.950Z,102875.63
2023-01-23T20:20:27.925Z,102957.53
2023-01-23T20:25:26.369Z,102955.78
2023-01-23T20:30:24.375Z,102950.66
2023-01-23T20:35:21.425Z,102902.72
2023-01-23T20:40:18.559Z,102969.84
2023-01-23T20:45:16.191Z,102958.38
2023-01-23T20:50:13.013Z,102891.06
2023-01-23T20:55:11.305Z,102959.38
2023-01-23T21:00:09.467Z,102957.31
2023-01-23T21:05:07.496Z,102933.75
2023-01-23T21:10:05.114Z,102951.97
2023-01-23T21:15:01.901Z,102958.13
2023-01-23T21:19:58.758Z,102961.63
2023-01-23T21:24:56.219Z,102958.22
2023-01-23T21:29:52.964Z,102902.28
2023-01-23T21:34:50.888Z,102976.56
2023-01-23T21:39:47.623Z,102980.75
2023-01-23T21:44:45.106Z,102945.84
2023-01-23T21:49:41.921Z,102988.72
2023-01-23T21:54:41.191Z,102952.66
2023-01-23T21:59:37.935Z,102942.59
2023-01-23T22:04:35.617Z,102931.50
2023-01-23T22:09:32.463Z,102958.53
2023-01-23T22:14:29.923Z,102917.56
2023-01-23T22:19:26.680Z,102947.44
2023-01-23T22:24:24.356Z,102945.91
2023-01-23T22:29:22.221Z,102948.34
2023-01-23T22:34:19.017Z,102958.75
2023-01-23T22:39:15.789Z,102940.66
2023-01-23T22:44:13.837Z,102936.31
2023-01-23T22:49:10.702Z,102977.50
2023-01-23T22:54:07.501Z,102986.19
2023-01-23T22:59:04.335Z,102985.44
2023-01-23T23:04:02.073Z,102963.66
2023-01-23T23:08:58.883Z,102961.16
2023-01-23T23:13:56.549Z,102920.78
2023-01-23T23:18:55.183Z,102956.63
2023-01-23T23:23:56.598Z,102890.28
2023-01-23T23:28:53.799Z,102932.75
2023-01-23T23:33:50.631Z,102922.44
2023-01-23T23:38:47.462Z,102952.91
2023-01-23T23:43:45.145Z,102819.16
2023-01-23T23:48:43.334Z,102954.31
2023-01-23T23:53:40.231Z,102962.84
2023-01-23T23:58:37.429Z,102972.31
